Point Lay, AK

9:08 PM AKDT on August 31, 2016 (GMT -0800)
Point Lay | | Change Station

Elev 23 ft 69.73 °N, 163.01 °W | Updated 12 minutes ago

Overcast
Overcast
38 °F
Feels Like 30 °F
N
12
Wind Variable Wind from NNE

Today
High -- | Low -- °F
--% Chance of Precip.
Yesterday
High -- | Low -- °F
Precip. -- in
Pressure 30.38 in
Visibility 9.0 miles
Clouds Overcast 1000 ft
Windchill 30 °F
Dew Point 35 °F
Humidity 89%
Rainfall 0.00 in
Snow Depth Not available.
7:08 AM 10:33 PM
Waning Crescent, 0% visible
METAR PPIZ 010456Z AUTO 03010KT 9SM OVC010 03/02 A3037 RMK AO2 CIG 008V012 SLP287 T00330017 TSNO
Pressure 30.38 in
Visibility 9.0 miles
Clouds Overcast 1000 ft
Windchill 30 °F
Dew Point 35 °F
Humidity 89%
Rainfall 0.00 in
Snow Depth Not available.
7:08 AM 10:33 PM
Waning Crescent, 0% visible
METAR PPIZ 010456Z AUTO 03010KT 9SM OVC010 03/02 A3037 RMK AO2 CIG 008V012 SLP287 T00330017 TSNO

10-Day Weather Forecast

Almanac

Astronomy

Aug. 31, 2016 Rise Set
Actual Time
Civil Twilight
Nautical Twilight
Astronomical Twilight
Moon
Length of Visible Light
Length of Day
Tomorrow will be .
, % of the Moon is Illuminated

Today's Extremes

State Highs State Lows

Community

WunderPhotos

Upload Photos

1,936,313 photos uploaded!

WunderBlog® & News

Nearby

Air Quality

  Air Quality AQ Index Pollutant
Not available.

Snow Depth

Station Depth Elevation

Earthquake Activity

City Distance Mag. Time & Date
Minimum magnitude displayed is 2.5.

Coastal Water Temperatures

Place Temperature

Stations

Nearby Weather Stations

Station Location Temp. Windchill Dew Point Humidity Wind Precip. Elev Updated Type
                   

Watches & Warnings

There are currently no watches in effect.